createdAt,value
2017-04-27T00:00:12.150Z,1007.78
2017-04-27T00:01:12.134Z,1007.81
2017-04-27T00:02:12.113Z,1007.77
2017-04-27T00:03:12.082Z,1007.79
2017-04-27T00:04:12.062Z,1007.76
2017-04-27T00:05:12.033Z,1007.76
2017-04-27T00:06:12.014Z,1007.77
2017-04-27T00:07:11.992Z,1007.78
2017-04-27T00:08:11.971Z,1007.74
2017-04-27T00:09:11.944Z,1007.75
2017-04-27T00:10:11.925Z,1007.71
2017-04-27T00:11:11.903Z,1007.78
2017-04-27T00:12:11.874Z,1007.77
2017-04-27T00:13:11.854Z,1007.75
2017-04-27T00:14:11.834Z,1007.74
2017-04-27T00:15:11.808Z,1007.76
2017-04-27T00:16:11.784Z,1007.76
2017-04-27T00:17:11.763Z,1007.77
2017-04-27T00:18:11.741Z,1007.74
2017-04-27T00:19:11.715Z,1007.79
2017-04-27T00:20:11.693Z,1007.77
2017-04-27T00:21:11.673Z,1007.77
2017-04-27T00:22:11.656Z,1007.76
2017-04-27T00:23:11.631Z,1007.72
2017-04-27T00:24:11.602Z,1007.73
2017-04-27T00:25:11.580Z,1007.72
2017-04-27T00:26:11.561Z,1007.72
2017-04-27T00:27:11.532Z,1007.72
2017-04-27T00:28:11.512Z,1007.7
2017-04-27T00:29:11.492Z,1007.71
2017-04-27T00:30:11.463Z,1007.69
2017-04-27T00:31:11.444Z,1007.72
2017-04-27T00:32:11.425Z,1007.71
2017-04-27T00:33:11.394Z,1007.72
2017-04-27T00:34:11.369Z,1007.71
2017-04-27T00:35:11.352Z,1007.68
2017-04-27T00:36:11.324Z,1007.71
2017-04-27T00:37:11.303Z,1007.71
2017-04-27T00:38:11.283Z,1007.72
2017-04-27T00:39:11.260Z,1007.67
2017-04-27T00:40:11.233Z,1007.7
2017-04-27T00:41:11.224Z,1007.7
2017-04-27T00:42:11.188Z,1007.66
2017-04-27T00:43:11.172Z,1007.66
2017-04-27T00:44:11.142Z,1007.71
2017-04-27T00:45:11.158Z,1007.67
2017-04-27T00:46:11.101Z,1007.67
2017-04-27T00:47:11.075Z,1007.67
2017-04-27T00:48:11.053Z,1007.65
2017-04-27T00:49:11.033Z,1007.66
2017-04-27T00:50:11.004Z,1007.65
2017-04-27T00:51:10.983Z,1007.65
2017-04-27T00:52:10.957Z,1007.61
2017-04-27T00:53:10.937Z,1007.61
2017-04-27T00:54:10.934Z,1007.64
2017-04-27T00:55:10.888Z,1007.63
2017-04-27T00:56:10.872Z,1007.65
2017-04-27T00:57:10.843Z,1007.62
2017-04-27T00:58:10.823Z,1007.62
2017-04-27T00:59:10.801Z,1007.64
2017-04-27T01:00:10.776Z,1007.66
2017-04-27T01:01:10.752Z,1007.65
2017-04-27T01:02:10.729Z,1007.67
2017-04-27T01:03:10.709Z,1007.67
2017-04-27T01:04:10.684Z,1007.67
2017-04-27T01:05:10.658Z,1007.66
2017-04-27T01:06:10.633Z,1007.66
2017-04-27T01:07:10.613Z,1007.68
2017-04-27T01:08:10.593Z,1007.72
2017-04-27T01:09:10.598Z,1007.72
2017-04-27T01:10:10.545Z,1007.72
2017-04-27T01:11:10.520Z,1007.72
2017-04-27T01:12:10.498Z,1007.7
2017-04-27T01:13:10.477Z,1007.69
2017-04-27T01:14:10.452Z,1007.71
2017-04-27T01:15:10.429Z,1007.67
2017-04-27T01:16:10.406Z,1007.7
2017-04-27T01:17:10.382Z,1007.67
2017-04-27T01:18:10.357Z,1007.66
2017-04-27T01:19:10.336Z,1007.69
2017-04-27T01:20:10.315Z,1007.68
2017-04-27T01:21:10.290Z,1007.69
2017-04-27T01:22:10.337Z,1007.71
2017-04-27T01:23:10.255Z,1007.68
2017-04-27T01:24:10.226Z,1007.68
2017-04-27T01:25:10.202Z,1007.65
2017-04-27T01:26:10.178Z,1007.63
2017-04-27T01:27:10.154Z,1007.65
2017-04-27T01:28:10.129Z,1007.65
2017-04-27T01:29:10.114Z,1007.67
2017-04-27T01:30:10.090Z,1007.67
2017-04-27T01:31:10.063Z,1007.67
2017-04-27T01:32:10.057Z,1007.69
2017-04-27T01:33:10.016Z,1007.69
2017-04-27T01:34:09.993Z,1007.68
2017-04-27T01:35:09.972Z,1007.69
2017-04-27T01:36:09.947Z,1007.7
2017-04-27T01:37:09.924Z,1007.74
2017-04-27T01:38:09.900Z,1007.74
2017-04-27T01:39:09.876Z,1007.73
2017-04-27T01:40:09.852Z,1007.74
2017-04-27T01:41:09.834Z,1007.79
2017-04-27T01:42:09.813Z,1007.74
2017-04-27T01:43:09.788Z,1007.77
2017-04-27T01:44:09.762Z,1007.79
2017-04-27T01:45:09.737Z,1007.73
2017-04-27T01:46:09.727Z,1007.75
2017-04-27T01:47:09.693Z,1007.73
2017-04-27T01:48:09.674Z,1007.77
2017-04-27T01:49:09.643Z,1007.77
2017-04-27T01:50:09.626Z,1007.74
2017-04-27T01:51:09.604Z,1007.77
2017-04-27T01:52:09.577Z,1007.81
2017-04-27T01:53:09.552Z,1007.76
2017-04-27T01:54:09.528Z,1007.75
2017-04-27T01:55:09.507Z,1007.76
2017-04-27T01:56:09.485Z,1007.79
2017-04-27T01:57:09.461Z,1007.78
2017-04-27T01:58:09.444Z,1007.77
2017-04-27T01:59:09.414Z,1007.79
2017-04-27T02:00:09.393Z,1007.76
2017-04-27T02:01:09.371Z,1007.75
2017-04-27T02:02:09.353Z,1007.77
2017-04-27T02:03:09.323Z,1007.76
2017-04-27T02:04:09.301Z,1007.74
2017-04-27T02:05:09.275Z,1007.75
2017-04-27T02:06:09.254Z,1007.76
2017-04-27T02:07:09.233Z,1007.73
2017-04-27T02:08:09.212Z,1007.76
2017-04-27T02:09:09.183Z,1007.74
2017-04-27T02:10:09.162Z,1007.77
2017-04-27T02:11:09.138Z,1007.79
2017-04-27T02:12:09.171Z,1007.72
2017-04-27T02:13:09.092Z,1007.75
2017-04-27T02:14:09.115Z,1007.74
2017-04-27T02:15:09.052Z,1007.76
2017-04-27T02:16:09.046Z,1007.74
2017-04-27T02:17:09.000Z,1007.77
2017-04-27T02:18:09.031Z,1007.76
2017-04-27T02:19:08.952Z,1007.79
2017-04-27T02:20:08.933Z,1007.75
2017-04-27T02:21:08.913Z,1007.82
2017-04-27T02:22:08.942Z,1007.77
2017-04-27T02:23:08.862Z,1007.79
2017-04-27T02:24:08.845Z,1007.74
2017-04-27T02:25:08.816Z,1007.8
2017-04-27T02:26:08.894Z,1007.78
2017-04-27T02:27:08.775Z,1007.78
2017-04-27T02:28:08.754Z,1007.79
2017-04-27T02:29:08.722Z,1007.77
2017-04-27T02:30:08.749Z,1007.77
2017-04-27T02:31:08.675Z,1007.82
2017-04-27T02:32:08.656Z,1007.81
2017-04-27T02:33:08.633Z,1007.78
2017-04-27T02:34:08.610Z,1007.82
2017-04-27T02:35:08.583Z,1007.84
2017-04-27T02:36:08.579Z,1007.8
2017-04-27T02:37:08.543Z,1007.8
2017-04-27T02:38:08.513Z,1007.83
2017-04-27T02:39:08.493Z,1007.82
2017-04-27T02:40:08.471Z,1007.83
2017-04-27T02:41:08.450Z,1007.77
2017-04-27T02:42:08.423Z,1007.79
2017-04-27T02:43:08.401Z,1007.79
2017-04-27T02:44:08.383Z,1007.78
2017-04-27T02:45:08.354Z,1007.8
2017-04-27T02:46:08.361Z,1007.81
2017-04-27T02:47:08.302Z,1007.81
2017-04-27T02:48:08.284Z,1007.81
2017-04-27T02:49:08.261Z,1007.81
2017-04-27T02:50:08.237Z,1007.81
2017-04-27T02:51:08.212Z,1007.81
2017-04-27T02:52:08.191Z,1007.83
2017-04-27T02:53:08.165Z,1007.82
2017-04-27T02:54:08.143Z,1007.8
2017-04-27T02:55:08.122Z,1007.84
2017-04-27T02:56:08.102Z,1007.83
2017-04-27T02:57:08.072Z,1007.81
2017-04-27T02:58:08.050Z,1007.83
2017-04-27T02:59:08.034Z,1007.83
2017-04-27T03:00:08.002Z,1007.83
2017-04-27T03:01:07.977Z,1007.82
2017-04-27T03:02:07.960Z,1007.81
2017-04-27T03:03:07.933Z,1007.84
2017-04-27T03:04:07.909Z,1007.82
2017-04-27T03:05:07.887Z,1007.84
2017-04-27T03:06:07.864Z,1007.81
2017-04-27T03:07:07.842Z,1007.79
2017-04-27T03:08:07.818Z,1007.81
2017-04-27T03:09:07.792Z,1007.82
2017-04-27T03:10:07.774Z,1007.79
2017-04-27T03:11:07.752Z,1007.81
2017-04-27T03:12:07.725Z,1007.78
2017-04-27T03:13:07.700Z,1007.78
2017-04-27T03:14:07.679Z,1007.77
2017-04-27T03:15:07.654Z,1007.79
2017-04-27T03:16:07.628Z,1007.75
2017-04-27T03:17:07.610Z,1007.8
2017-04-27T03:18:07.583Z,1007.78
2017-04-27T03:19:07.559Z,1007.78
2017-04-27T03:20:07.536Z,1007.83
2017-04-27T03:21:07.513Z,1007.82
2017-04-27T03:22:07.489Z,1007.84
2017-04-27T03:23:07.465Z,1007.84
2017-04-27T03:24:07.441Z,1007.86
2017-04-27T03:25:07.420Z,1007.84
2017-04-27T03:26:07.402Z,1007.83
2017-04-27T03:27:07.374Z,1007.83
2017-04-27T03:28:07.346Z,1007.83
2017-04-27T03:29:07.323Z,1007.85
2017-04-27T03:30:07.300Z,1007.82
2017-04-27T03:31:07.274Z,1007.85
2017-04-27T03:32:07.250Z,1007.85
2017-04-27T03:33:07.236Z,1007.85
2017-04-27T03:34:07.203Z,1007.84
2017-04-27T03:35:07.209Z,1007.86
2017-04-27T03:36:07.154Z,1007.85
2017-04-27T03:37:07.133Z,1007.87
2017-04-27T03:38:07.109Z,1007.84
2017-04-27T03:39:07.084Z,1007.89
2017-04-27T03:40:07.060Z,1007.86
2017-04-27T03:41:07.045Z,1007.9
2017-04-27T03:42:07.014Z,1007.93
2017-04-27T03:43:06.994Z,1007.9
2017-04-27T03:44:06.966Z,1007.93
2017-04-27T03:45:06.943Z,1007.9
2017-04-27T03:46:06.924Z,1007.91
2017-04-27T03:47:06.903Z,1007.91
2017-04-27T03:48:06.873Z,1007.94
2017-04-27T03:49:06.853Z,1007.88
2017-04-27T03:50:06.833Z,1007.9
2017-04-27T03:51:06.802Z,1007.94
2017-04-27T03:52:06.778Z,1007.95
2017-04-27T03:53:06.762Z,1007.94
2017-04-27T03:54:06.731Z,1007.94
2017-04-27T03:55:06.711Z,1007.96
2017-04-27T03:56:06.682Z,1007.95
2017-04-27T03:57:06.660Z,1007.99
2017-04-27T03:58:06.645Z,1007.98
2017-04-27T03:59:06.613Z,1007.98
2017-04-27T04:00:06.585Z,1008
2017-04-27T04:01:06.563Z,1008.04
2017-04-27T04:02:06.546Z,1008.02
2017-04-27T04:03:06.513Z,1008.03
2017-04-27T04:04:06.493Z,1008.06
2017-04-27T04:05:06.470Z,1008.04
2017-04-27T04:06:06.444Z,1008.03
2017-04-27T04:07:06.423Z,1008.05
2017-04-27T04:08:06.395Z,1008.08
2017-04-27T04:09:06.373Z,1008.1
2017-04-27T04:10:06.349Z,1008.11
2017-04-27T04:11:06.324Z,1008.1
2017-04-27T04:12:06.301Z,1008.07
2017-04-27T04:13:06.277Z,1008.05
2017-04-27T04:14:06.253Z,1008.1
2017-04-27T04:15:06.230Z,1008.11
2017-04-27T04:16:06.205Z,1008.1
2017-04-27T04:17:06.183Z,1008.11
2017-04-27T04:18:06.167Z,1008.13
2017-04-27T04:19:06.135Z,1008.12
2017-04-27T04:20:06.109Z,1008.12
2017-04-27T04:21:06.084Z,1008.15
2017-04-27T04:22:06.062Z,1008.18
2017-04-27T04:23:06.041Z,1008.2
2017-04-27T04:24:06.050Z,1008.22
2017-04-27T04:25:05.996Z,1008.23
2017-04-27T04:26:05.963Z,1008.23
2017-04-27T04:27:05.956Z,1008.25
2017-04-27T04:28:05.919Z,1008.25
2017-04-27T04:29:05.891Z,1008.25
2017-04-27T04:30:05.884Z,1008.27
2017-04-27T04:31:05.843Z,1008.31
2017-04-27T04:32:05.818Z,1008.29
2017-04-27T04:33:05.805Z,1008.29
2017-04-27T04:34:05.770Z,1008.28
2017-04-27T04:35:05.747Z,1008.29
2017-04-27T04:36:05.725Z,1008.29
2017-04-27T04:37:05.700Z,1008.3
2017-04-27T04:38:05.678Z,1008.32
2017-04-27T04:39:05.655Z,1008.32
2017-04-27T04:40:05.629Z,1008.36
2017-04-27T04:41:05.607Z,1008.36
2017-04-27T04:42:05.603Z,1008.38
2017-04-27T04:43:05.557Z,1008.39
2017-04-27T04:44:05.532Z,1008.42
2017-04-27T04:45:05.513Z,1008.4
2017-04-27T04:46:05.486Z,1008.44
2017-04-27T04:47:05.463Z,1008.42
2017-04-27T04:48:05.440Z,1008.47
2017-04-27T04:49:05.416Z,1008.41
2017-04-27T04:50:05.393Z,1008.46
2017-04-27T04:51:05.375Z,1008.43
2017-04-27T04:52:05.344Z,1008.43
2017-04-27T04:53:05.320Z,1008.46
2017-04-27T04:54:05.295Z,1008.46
2017-04-27T04:55:05.274Z,1008.48
2017-04-27T04:56:05.247Z,1008.51
2017-04-27T04:57:05.224Z,1008.49
2017-04-27T04:58:05.203Z,1008.49
2017-04-27T04:59:05.183Z,1008.51
2017-04-27T05:00:05.154Z,1008.49
2017-04-27T05:01:05.134Z,1008.5
2017-04-27T05:02:05.103Z,1008.49
2017-04-27T05:03:05.083Z,1008.5
2017-04-27T05:04:05.060Z,1008.5
2017-04-27T05:05:05.033Z,1008.52
2017-04-27T05:06:05.008Z,1008.53
2017-04-27T05:07:04.985Z,1008.51
2017-04-27T05:08:04.965Z,1008.51
2017-04-27T05:09:04.945Z,1008.54
2017-04-27T05:10:04.926Z,1008.55
2017-04-27T05:11:04.892Z,1008.55
2017-04-27T05:12:04.873Z,1008.55
2017-04-27T05:13:04.843Z,1008.55
2017-04-27T05:14:04.824Z,1008.59
2017-04-27T05:15:04.795Z,1008.57
2017-04-27T05:16:04.774Z,1008.55
2017-04-27T05:17:04.752Z,1008.57
2017-04-27T05:18:04.733Z,1008.53
2017-04-27T05:19:04.702Z,1008.55
2017-04-27T05:20:04.679Z,1008.6
2017-04-27T05:21:04.662Z,1008.6
2017-04-27T05:22:04.632Z,1008.59
2017-04-27T05:23:04.609Z,1008.62
2017-04-27T05:24:04.582Z,1008.63
2017-04-27T05:25:04.563Z,1008.65
2017-04-27T05:26:04.536Z,1008.65
2017-04-27T05:27:04.514Z,1008.62
2017-04-27T05:28:04.491Z,1008.67
2017-04-27T05:29:04.470Z,1008.67
2017-04-27T05:30:04.452Z,1008.65
2017-04-27T05:31:04.422Z,1008.65
2017-04-27T05:32:04.395Z,1008.69
2017-04-27T05:33:04.372Z,1008.71
2017-04-27T05:34:04.352Z,1008.69
2017-04-27T05:35:04.325Z,1008.69
2017-04-27T05:36:04.304Z,1008.68
2017-04-27T05:37:04.279Z,1008.66
2017-04-27T05:38:04.257Z,1008.7
2017-04-27T05:39:04.235Z,1008.71
2017-04-27T05:40:04.212Z,1008.72
2017-04-27T05:41:04.189Z,1008.72
2017-04-27T05:42:04.161Z,1008.71
2017-04-27T05:43:04.141Z,1008.72
2017-04-27T05:44:04.122Z,1008.73
2017-04-27T05:45:04.093Z,1008.72
2017-04-27T05:46:04.075Z,1008.72
2017-04-27T05:47:04.046Z,1008.75
2017-04-27T05:48:04.021Z,1008.77
2017-04-27T05:49:04.006Z,1008.74
2017-04-27T05:50:03.979Z,1008.74
2017-04-27T05:51:03.960Z,1008.83
2017-04-27T05:52:03.933Z,1008.83
2017-04-27T05:53:03.912Z,1008.82
2017-04-27T05:54:03.885Z,1008.85
2017-04-27T05:55:03.861Z,1008.83
2017-04-27T05:56:03.840Z,1008.84
2017-04-27T05:57:03.816Z,1008.83
2017-04-27T05:58:03.794Z,1008.82
2017-04-27T05:59:03.772Z,1008.86
2017-04-27T06:00:03.752Z,1008.83
2017-04-27T06:01:03.760Z,1008.83
2017-04-27T06:02:03.703Z,1008.84
2017-04-27T06:03:03.683Z,1008.82
2017-04-27T06:04:03.658Z,1008.85
2017-04-27T06:05:03.638Z,1008.84
2017-04-27T06:06:03.626Z,1008.87
2017-04-27T06:07:03.589Z,1008.88
2017-04-27T06:08:03.602Z,1008.86
2017-04-27T06:09:03.539Z,1008.85
2017-04-27T06:10:03.570Z,1008.87
2017-04-27T06:11:03.500Z,1008.88
2017-04-27T06:12:03.582Z,1008.86
2017-04-27T06:13:03.452Z,1008.84
2017-04-27T06:14:03.431Z,1008.86
2017-04-27T06:15:03.414Z,1008.87
2017-04-27T06:16:03.390Z,1008.86
2017-04-27T06:17:03.364Z,1008.88
2017-04-27T06:18:03.416Z,1008.93
2017-04-27T06:19:03.329Z,1008.89
2017-04-27T06:20:03.303Z,1008.89
2017-04-27T06:21:03.273Z,1008.9
2017-04-27T06:22:03.255Z,1008.87
2017-04-27T06:23:03.232Z,1008.84
2017-04-27T06:24:03.212Z,1008.9
2017-04-27T06:25:03.192Z,1008.91
2017-04-27T06:26:03.164Z,1008.93
2017-04-27T06:27:03.139Z,1008.92
2017-04-27T06:28:03.116Z,1008.9
2017-04-27T06:29:03.096Z,1008.88
2017-04-27T06:30:03.080Z,1008.91
2017-04-27T06:31:03.054Z,1008.93
2017-04-27T06:32:03.123Z,1008.92
2017-04-27T06:33:03.004Z,1008.96
2017-04-27T06:34:02.989Z,1008.95
2017-04-27T06:35:02.971Z,1008.98
2017-04-27T06:36:02.949Z,1008.95
2017-04-27T06:37:02.922Z,1008.97
2017-04-27T06:38:03.026Z,1008.99
2017-04-27T06:39:02.876Z,1009.02
2017-04-27T06:40:02.857Z,1009.04
2017-04-27T06:41:02.842Z,1009.08
2017-04-27T06:42:02.812Z,1009.08
2017-04-27T06:43:02.794Z,1009.09
2017-04-27T06:44:02.774Z,1009.08
2017-04-27T06:45:02.756Z,1009.08
2017-04-27T06:46:02.724Z,1009.1
2017-04-27T06:47:02.713Z,1009.06
2017-04-27T06:48:02.683Z,1009.09
2017-04-27T06:49:02.663Z,1009.06
2017-04-27T06:50:02.637Z,1009.07
2017-04-27T06:51:02.615Z,1009.05
2017-04-27T06:52:02.598Z,1009.06
2017-04-27T06:53:02.575Z,1009.05
2017-04-27T06:54:02.553Z,1009.07
2017-04-27T06:55:02.529Z,1009.07
2017-04-27T06:56:02.513Z,1009.09
2017-04-27T06:57:02.495Z,1009.08
2017-04-27T06:58:02.469Z,1009.09
2017-04-27T06:59:02.453Z,1009.08
2017-04-27T07:00:02.435Z,1009.1
2017-04-27T07:01:02.402Z,1009.14
2017-04-27T07:02:02.382Z,1009.09
2017-04-27T07:03:02.370Z,1009.17
2017-04-27T07:04:02.339Z,1009.14
2017-04-27T07:05:02.325Z,1009.14
2017-04-27T07:06:02.302Z,1009.08
2017-04-27T07:07:02.280Z,1009.1
2017-04-27T07:08:02.263Z,1009.15
2017-04-27T07:09:02.241Z,1009.13
2017-04-27T07:10:02.213Z,1009.15
2017-04-27T07:11:02.197Z,1009.17
2017-04-27T07:12:02.182Z,1009.18
2017-04-27T07:13:02.150Z,1009.17
2017-04-27T07:14:02.143Z,1009.2
2017-04-27T07:15:02.119Z,1009.39
2017-04-27T07:16:02.091Z,1009.92
2017-04-27T07:17:02.070Z,1010.14
2017-04-27T07:18:02.054Z,1010.22
2017-04-27T07:19:02.032Z,1010.2
2017-04-27T07:20:02.013Z,1010.06
2017-04-27T07:21:01.993Z,1010.15
2017-04-27T07:22:01.970Z,1010.09
2017-04-27T07:23:01.951Z,1009.3
2017-04-27T07:24:01.929Z,1010.16
2017-04-27T07:25:01.911Z,1009.59
2017-04-27T07:26:01.892Z,1010.19
2017-04-27T07:27:01.871Z,1010.18
2017-04-27T07:28:01.860Z,1010.21
2017-04-27T07:29:01.843Z,1010.34
2017-04-27T07:30:01.826Z,1010.17
2017-04-27T07:31:01.803Z,1009.32
2017-04-27T07:32:01.794Z,1009.28
2017-04-27T07:33:01.771Z,1009.34
2017-04-27T07:34:01.752Z,1009.31
2017-04-27T07:35:01.731Z,1009.33
2017-04-27T07:36:01.722Z,1009.29
2017-04-27T07:37:01.704Z,1009.25
2017-04-27T07:38:01.682Z,1009.29
2017-04-27T07:39:01.662Z,1009.29
2017-04-27T07:40:01.647Z,1009.28
2017-04-27T07:41:01.631Z,1009.27
2017-04-27T07:42:01.609Z,1009.3
2017-04-27T07:43:01.591Z,1009.28
2017-04-27T07:44:01.573Z,1009.33
2017-04-27T07:45:01.557Z,1009.35
2017-04-27T07:46:01.541Z,1009.8
2017-04-27T07:47:01.520Z,1009.87
2017-04-27T07:48:01.502Z,1009.89
2017-04-27T07:49:01.482Z,1009.93
2017-04-27T07:50:01.465Z,1009.85
2017-04-27T07:51:01.451Z,1009.55
2017-04-27T07:52:01.436Z,1009.77
2017-04-27T07:53:01.461Z,1009.72
2017-04-27T07:54:01.409Z,1009.66
2017-04-27T07:55:01.404Z,1009.64
2017-04-27T07:56:01.384Z,1009.63
2017-04-27T07:57:01.375Z,1009.7
2017-04-27T07:58:01.363Z,1009.66
2017-04-27T07:59:01.353Z,1009.68
2017-04-27T08:00:01.343Z,1009.51
2017-04-27T08:01:01.331Z,1009.52
2017-04-27T08:02:01.416Z,1009.5
2017-04-27T08:03:01.311Z,1009.5
2017-04-27T08:04:01.389Z,1009.48
2017-04-27T08:05:01.289Z,1009.46
2017-04-27T08:06:01.381Z,1009.45
2017-04-27T08:07:01.269Z,1009.53
2017-04-27T08:08:01.353Z,1009.64
2017-04-27T08:09:01.244Z,1009.7
2017-04-27T08:10:01.263Z,1009.74
2017-04-27T08:11:01.220Z,1009.74
2017-04-27T08:12:01.273Z,1009.68
2017-04-27T08:13:01.200Z,1009.55
2017-04-27T08:14:01.189Z,1009.55
2017-04-27T08:15:01.185Z,1009.51
2017-04-27T08:16:01.216Z,1009.51
2017-04-27T08:17:01.160Z,1009.48
2017-04-27T08:18:01.153Z,1009.45
2017-04-27T08:19:01.139Z,1009.71
2017-04-27T08:20:01.124Z,1009.84
2017-04-27T08:21:01.113Z,1010.07
2017-04-27T08:22:01.100Z,1009.56
2017-04-27T08:23:01.090Z,1009.53
2017-04-27T08:24:01.079Z,1010.34
2017-04-27T08:25:01.065Z,1010.34
2017-04-27T08:26:01.053Z,1009.95
2017-04-27T08:27:01.040Z,1010
2017-04-27T08:28:01.032Z,1010.29
2017-04-27T08:29:01.023Z,1010.3
2017-04-27T08:30:01.011Z,1010.29
2017-04-27T08:31:01.004Z,1010.25
2017-04-27T08:32:00.995Z,1010.12
2017-04-27T08:33:00.986Z,1010.21
2017-04-27T08:34:00.974Z,1010.16
2017-04-27T08:35:00.968Z,1010.24
2017-04-27T08:36:00.963Z,1009.91
2017-04-27T08:37:00.954Z,1009.67
2017-04-27T08:38:00.947Z,1009.66
2017-04-27T08:39:00.941Z,1010.17
2017-04-27T08:40:00.931Z,1009.68
2017-04-27T08:41:00.925Z,1009.65
2017-04-27T08:42:00.916Z,1009.64
2017-04-27T08:43:00.910Z,1009.67
2017-04-27T08:44:00.893Z,1009.62
2017-04-27T08:45:00.884Z,1009.71
2017-04-27T08:46:00.871Z,1010.12
2017-04-27T08:47:00.859Z,1010.13
2017-04-27T08:48:00.855Z,1010.11
2017-04-27T08:49:00.838Z,1010.04
2017-04-27T08:50:00.833Z,1010.14
2017-04-27T08:51:00.821Z,1010.17
2017-04-27T08:52:00.813Z,1010.16
2017-04-27T08:53:00.819Z,1010.12
2017-04-27T08:54:00.798Z,1010.04
2017-04-27T08:55:00.793Z,1010.05
2017-04-27T08:56:00.786Z,1010.04
2017-04-27T08:57:00.777Z,1009.73
2017-04-27T08:58:00.779Z,1009.66
2017-04-27T08:59:00.753Z,1009.95
2017-04-27T09:00:00.750Z,1009.64
2017-04-27T09:01:00.745Z,1009.89
2017-04-27T09:02:00.737Z,1009.96
2017-04-27T09:03:00.721Z,1009.95
2017-04-27T09:04:00.714Z,1010
2017-04-27T09:05:00.709Z,1009.8
2017-04-27T09:06:00.709Z,1009.71
2017-04-27T09:07:00.694Z,1009.72
2017-04-27T09:08:00.682Z,1009.73
2017-04-27T09:09:00.674Z,1009.74
2017-04-27T09:10:00.689Z,1009.69
2017-04-27T09:11:00.662Z,1009.77
2017-04-27T09:12:00.642Z,1009.87
2017-04-27T09:13:00.634Z,1009.85
2017-04-27T09:14:00.620Z,1009.85
2017-04-27T09:15:00.616Z,1009.8
2017-04-27T09:16:00.605Z,1009.85
2017-04-27T09:17:00.599Z,1009.87
2017-04-27T09:18:00.591Z,1009.86
2017-04-27T09:19:00.580Z,1009.84
2017-04-27T09:20:00.571Z,1009.85
2017-04-27T09:21:00.561Z,1009.88
2017-04-27T09:22:00.555Z,1009.86
2017-04-27T09:23:00.544Z,1009.79
2017-04-27T09:24:00.538Z,1009.8
2017-04-27T09:25:00.532Z,1009.78
2017-04-27T09:26:00.526Z,1009.84
2017-04-27T09:27:00.520Z,1009.81
2017-04-27T09:28:00.513Z,1009.76
2017-04-27T09:29:00.504Z,1009.84
2017-04-27T09:30:00.497Z,1009.76
2017-04-27T09:31:00.490Z,1009.82
2017-04-27T09:32:00.495Z,1009.79
2017-04-27T09:33:00.482Z,1009.85
2017-04-27T09:34:00.482Z,1009.81
2017-04-27T09:35:00.470Z,1009.8
2017-04-27T09:36:00.462Z,1009.87
2017-04-27T09:37:00.454Z,1009.82
2017-04-27T09:38:00.449Z,1009.81
2017-04-27T09:39:00.443Z,1009.8
2017-04-27T09:40:00.444Z,1009.78
2017-04-27T09:41:00.488Z,1009.71
2017-04-27T09:42:00.441Z,1009.71
2017-04-27T09:43:00.417Z,1009.73
2017-04-27T09:44:00.425Z,1009.73
2017-04-27T09:45:00.411Z,1009.7
2017-04-27T09:46:00.401Z,1009.64
2017-04-27T09:47:00.402Z,1009.72
2017-04-27T09:48:00.384Z,1009.72
2017-04-27T09:49:00.385Z,1009.69
2017-04-27T09:50:00.376Z,1009.67
2017-04-27T09:51:00.379Z,1009.75
2017-04-27T09:52:00.361Z,1009.72
2017-04-27T09:53:00.349Z,1009.79
2017-04-27T09:54:00.364Z,1009.8
2017-04-27T09:55:00.325Z,1009.73
2017-04-27T09:56:00.326Z,1009.74
2017-04-27T09:57:00.327Z,1009.75
2017-04-27T09:58:00.325Z,1009.66
2017-04-27T09:59:00.295Z,1009.66
2017-04-27T10:00:00.282Z,1009.66
2017-04-27T10:01:00.272Z,1009.68
2017-04-27T10:02:00.262Z,1009.68
2017-04-27T10:03:00.252Z,1009.74
2017-04-27T10:04:00.245Z,1009.67
2017-04-27T10:05:00.231Z,1009.61
2017-04-27T10:06:00.225Z,1009.63
2017-04-27T10:07:00.215Z,1009.61
2017-04-27T10:08:00.203Z,1009.59
2017-04-27T10:09:00.197Z,1009.52
2017-04-27T10:10:00.177Z,1009.53
2017-04-27T10:11:00.173Z,1009.59
2017-04-27T10:12:00.167Z,1009.51
2017-04-27T10:13:00.154Z,1009.51
2017-04-27T10:14:00.139Z,1009.49
2017-04-27T10:15:00.124Z,1009.52
2017-04-27T10:16:00.112Z,1009.47
2017-04-27T10:17:00.097Z,1009.45
2017-04-27T10:18:00.092Z,1009.45
2017-04-27T10:19:00.076Z,1009.43
2017-04-27T10:20:00.066Z,1009.42
2017-04-27T10:21:00.050Z,1009.4
2017-04-27T10:22:00.036Z,1009.38
2017-04-27T10:23:00.020Z,1009.4
2017-04-27T10:24:00.011Z,1009.39
2017-04-27T10:24:59.995Z,1009.4
2017-04-27T10:25:59.982Z,1009.38
2017-04-27T10:26:59.974Z,1009.39
2017-04-27T10:27:59.951Z,1009.4
2017-04-27T10:28:59.942Z,1009.36
2017-04-27T10:29:59.930Z,1009.39
2017-04-27T10:30:59.921Z,1009.37
2017-04-27T10:31:59.902Z,1009.32
2017-04-27T10:32:59.892Z,1009.38
2017-04-27T10:33:59.872Z,1009.32
2017-04-27T10:34:59.858Z,1009.25
2017-04-27T10:35:59.852Z,1009.27
2017-04-27T10:36:59.843Z,1009.24
2017-04-27T10:37:59.821Z,1009.25
2017-04-27T10:38:59.811Z,1009.26
2017-04-27T10:39:59.794Z,1009.26
2017-04-27T10:40:59.881Z,1009.21
2017-04-27T10:41:59.767Z,1009.23
2017-04-27T10:42:59.851Z,1009.22
2017-04-27T10:43:59.755Z,1009.22
2017-04-27T10:44:59.723Z,1009.16
2017-04-27T10:45:59.716Z,1009.15
2017-04-27T10:46:59.800Z,1009.18
2017-04-27T10:47:59.678Z,1009.19
2017-04-27T10:48:59.665Z,1009.14
2017-04-27T10:49:59.649Z,1009.14
2017-04-27T10:50:59.689Z,1009.13
2017-04-27T10:51:59.623Z,1009.13
2017-04-27T10:52:59.705Z,1009.13
2017-04-27T10:53:59.594Z,1009.14
2017-04-27T10:54:59.604Z,1009.12
2017-04-27T10:55:59.563Z,1009.09
2017-04-27T10:56:59.600Z,1009.08
2017-04-27T10:57:59.531Z,1009.05
2017-04-27T10:58:59.522Z,1009.05
2017-04-27T10:59:59.506Z,1009.09
2017-04-27T11:00:59.494Z,1009.07
2017-04-27T11:01:59.474Z,1009.04
2017-04-27T11:02:59.460Z,1009.01
2017-04-27T11:03:59.444Z,1009.01
2017-04-27T11:04:59.440Z,1009.05
2017-04-27T11:05:59.412Z,1009.02
2017-04-27T11:06:59.397Z,1009.05
2017-04-27T11:07:59.383Z,1008.98
2017-04-27T11:08:59.367Z,1009.03
2017-04-27T11:09:59.352Z,1009.01
2017-04-27T11:10:59.341Z,1009.05
2017-04-27T11:11:59.323Z,1009.08
2017-04-27T11:12:59.341Z,1009.05
2017-04-27T11:13:59.293Z,1009.01
2017-04-27T11:14:59.282Z,1009.06
2017-04-27T11:15:59.261Z,1009.07
2017-04-27T11:16:59.251Z,1009.04
2017-04-27T11:17:59.227Z,1009.11
2017-04-27T11:18:59.213Z,1009.07
2017-04-27T11:19:59.197Z,1009.06
2017-04-27T11:20:59.180Z,1009.02
2017-04-27T11:21:59.171Z,1008.99
2017-04-27T11:22:59.153Z,1009.01
2017-04-27T11:23:59.139Z,1008.98
2017-04-27T11:24:59.119Z,1009
2017-04-27T11:25:59.107Z,1008.97
2017-04-27T11:26:59.088Z,1008.97
2017-04-27T11:27:59.072Z,1008.91
2017-04-27T11:28:59.064Z,1008.94
2017-04-27T11:29:59.045Z,1008.91
2017-04-27T11:30:59.032Z,1008.92
2017-04-27T11:31:59.031Z,1008.86
2017-04-27T11:32:59.004Z,1008.87
2017-04-27T11:33:58.985Z,1008.91
2017-04-27T11:34:58.982Z,1008.86
2017-04-27T11:35:58.962Z,1008.86
2017-04-27T11:36:58.945Z,1008.82
2017-04-27T11:37:58.928Z,1008.85
2017-04-27T11:38:58.985Z,1008.92
2017-04-27T11:39:58.901Z,1008.8
2017-04-27T11:40:58.888Z,1008.79
2017-04-27T11:41:58.869Z,1008.7
2017-04-27T11:42:58.861Z,1008.77
2017-04-27T11:43:58.851Z,1008.75
2017-04-27T11:44:58.833Z,1008.75
2017-04-27T11:45:58.817Z,1008.73
2017-04-27T11:46:58.805Z,1008.73
2017-04-27T11:47:58.802Z,1008.78
2017-04-27T11:48:58.777Z,1008.72
2017-04-27T11:49:58.761Z,1008.78
2017-04-27T11:50:58.750Z,1008.75
2017-04-27T11:51:58.732Z,1008.77
2017-04-27T11:52:58.721Z,1008.75
2017-04-27T11:53:58.705Z,1008.77
2017-04-27T11:54:58.689Z,1008.77
2017-04-27T11:55:58.671Z,1008.79
2017-04-27T11:56:58.661Z,1008.77
2017-04-27T11:57:58.638Z,1008.78
2017-04-27T11:58:58.628Z,1008.78
2017-04-27T11:59:58.607Z,1008.77
2017-04-27T12:00:58.593Z,1008.81
2017-04-27T12:01:58.581Z,1008.9
2017-04-27T12:02:58.561Z,1008.83
2017-04-27T12:03:58.550Z,1008.82
2017-04-27T12:04:58.531Z,1008.78
2017-04-27T12:05:58.515Z,1008.8
2017-04-27T12:06:58.502Z,1008.81